Terminal Aerodrome Forecast
Issued by NWS

Home | Current Version | Previous Version | Text Only | Print | Product List | Glossary On
Versions: 1 2 3 4 5 6 7 8 9 10 11 12 13
000
FTUS42 TJSJ 212300
TAFJMZ
TAF
TJMZ 212329Z 2200/2224 09013KT P6SM VCSH SCT025 BKN040
      TEMPO 2201/2203 10013G20KT 5SM SHRA SCT020 BKN030
     FM221000 07012KT P6SM VCTS SCT020CB BKN040 BKN060
      TEMPO 2212/2214 VRB10G22KT 4SM TSRA BKN030CB BKN040 OVC060=

USA.gov is the U.S. government's official web portal to all federal, state and local government web resources and services.